sensor_id;sensor_type;location;lat;lon;timestamp;pressure;altitude;pressure_sealevel;temperature;humidity
34065;BME280;20339;49.754;20.158;2022-09-03T00:01:39;96900.25;;;10.39;74.84
34065;BME280;20339;49.754;20.158;2022-09-03T00:04:18;96898.91;;;10.46;74.85
34065;BME280;20339;49.754;20.158;2022-09-03T00:06:57;96906.08;;;10.45;74.88
34065;BME280;20339;49.754;20.158;2022-09-03T00:09:34;96902.93;;;10.28;75.34
34065;BME280;20339;49.754;20.158;2022-09-03T00:12:12;96905.73;;;10.14;75.95
34065;BME280;20339;49.754;20.158;2022-09-03T00:14:48;96903.61;;;10.09;76.30
34065;BME280;20339;49.754;20.158;2022-09-03T00:17:23;96905.63;;;10.08;76.33
34065;BME280;20339;49.754;20.158;2022-09-03T00:19:59;96900.67;;;9.99;76.48
34065;BME280;20339;49.754;20.158;2022-09-03T00:22:35;96901.10;;;10.01;76.50
34065;BME280;20339;49.754;20.158;2022-09-03T00:25:13;96894.75;;;10.02;76.63
34065;BME280;20339;49.754;20.158;2022-09-03T00:27:47;96896.96;;;10.04;76.70
34065;BME280;20339;49.754;20.158;2022-09-03T00:30:22;96894.95;;;10.06;76.83
34065;BME280;20339;49.754;20.158;2022-09-03T00:32:58;96896.11;;;10.05;76.83
34065;BME280;20339;49.754;20.158;2022-09-03T00:35:36;96896.96;;;9.94;76.88
34065;BME280;20339;49.754;20.158;2022-09-03T00:38:10;96895.48;;;9.95;77.08
34065;BME280;20339;49.754;20.158;2022-09-03T00:40:59;96890.50;;;9.99;77.09
34065;BME280;20339;49.754;20.158;2022-09-03T00:43:53;96887.77;;;9.90;76.99
34065;BME280;20339;49.754;20.158;2022-09-03T00:46:32;96889.99;;;9.78;77.22
34065;BME280;20339;49.754;20.158;2022-09-03T00:49:26;96895.94;;;9.74;77.58
34065;BME280;20339;49.754;20.158;2022-09-03T00:52:07;96894.80;;;9.80;77.65
34065;BME280;20339;49.754;20.158;2022-09-03T00:54:50;96890.14;;;9.81;77.62
34065;BME280;20339;49.754;20.158;2022-09-03T00:57:33;96891.05;;;9.79;77.62
34065;BME280;20339;49.754;20.158;2022-09-03T01:00:11;96886.38;;;9.81;77.67
34065;BME280;20339;49.754;20.158;2022-09-03T01:02:52;96886.55;;;9.78;77.63
34065;BME280;20339;49.754;20.158;2022-09-03T01:05:39;96886.39;;;9.79;77.64
34065;BME280;20339;49.754;20.158;2022-09-03T01:08:29;96887.66;;;9.78;77.47
34065;BME280;20339;49.754;20.158;2022-09-03T01:11:15;96890.30;;;9.81;77.65
34065;BME280;20339;49.754;20.158;2022-09-03T01:13:52;96889.52;;;9.77;77.58
34065;BME280;20339;49.754;20.158;2022-09-03T01:16:30;96890.15;;;9.69;77.69
34065;BME280;20339;49.754;20.158;2022-09-03T01:19:09;96888.04;;;9.59;77.95
34065;BME280;20339;49.754;20.158;2022-09-03T01:22:13;96889.09;;;9.57;77.90
34065;BME280;20339;49.754;20.158;2022-09-03T01:25:08;96887.23;;;9.54;77.99
34065;BME280;20339;49.754;20.158;2022-09-03T01:27:48;96886.71;;;9.56;78.20
34065;BME280;20339;49.754;20.158;2022-09-03T01:30:22;96882.48;;;9.59;77.96
34065;BME280;20339;49.754;20.158;2022-09-03T01:32:58;96875.65;;;9.58;77.78
34065;BME280;20339;49.754;20.158;2022-09-03T01:35:36;96870.78;;;9.46;77.97
34065;BME280;20339;49.754;20.158;2022-09-03T01:38:18;96871.83;;;9.36;78.01
34065;BME280;20339;49.754;20.158;2022-09-03T01:41:00;96875.04;;;9.24;78.26
34065;BME280;20339;49.754;20.158;2022-09-03T01:43:55;96873.23;;;9.21;78.38
34065;BME280;20339;49.754;20.158;2022-09-03T01:46:38;96877.98;;;9.13;78.52
34065;BME280;20339;49.754;20.158;2022-09-03T01:49:16;96877.92;;;9.13;78.81
34065;BME280;20339;49.754;20.158;2022-09-03T01:51:58;96880.33;;;9.17;79.02
34065;BME280;20339;49.754;20.158;2022-09-03T01:54:46;96885.36;;;9.24;79.25
34065;BME280;20339;49.754;20.158;2022-09-03T01:57:49;96890.67;;;9.34;79.41
34065;BME280;20339;49.754;20.158;2022-09-03T02:00:25;96883.48;;;9.44;79.44
34065;BME280;20339;49.754;20.158;2022-09-03T02:03:03;96877.86;;;9.53;79.78
34065;BME280;20339;49.754;20.158;2022-09-03T02:05:35;96877.50;;;9.58;79.84
34065;BME280;20339;49.754;20.158;2022-09-03T02:08:08;96876.02;;;9.56;80.08
34065;BME280;20339;49.754;20.158;2022-09-03T02:10:42;96881.89;;;9.65;80.37
34065;BME280;20339;49.754;20.158;2022-09-03T02:13:17;96884.42;;;9.69;80.36
34065;BME280;20339;49.754;20.158;2022-09-03T02:15:51;96886.71;;;9.58;80.51
34065;BME280;20339;49.754;20.158;2022-09-03T02:18:26;96889.66;;;9.54;80.95
34065;BME280;20339;49.754;20.158;2022-09-03T02:21:01;96891.38;;;9.45;81.00
34065;BME280;20339;49.754;20.158;2022-09-03T02:23:32;96893.00;;;9.47;81.21
34065;BME280;20339;49.754;20.158;2022-09-03T02:26:04;96893.05;;;9.55;81.60
34065;BME280;20339;49.754;20.158;2022-09-03T02:28:37;96891.63;;;9.56;81.89
34065;BME280;20339;49.754;20.158;2022-09-03T02:31:08;96893.64;;;9.65;82.00
34065;BME280;20339;49.754;20.158;2022-09-03T02:33:41;96896.29;;;9.76;81.93
34065;BME280;20339;49.754;20.158;2022-09-03T02:36:16;96892.05;;;9.87;82.11
34065;BME280;20339;49.754;20.158;2022-09-03T02:38:48;96894.68;;;9.99;82.21
34065;BME280;20339;49.754;20.158;2022-09-03T02:41:19;96890.48;;;10.08;81.80
34065;BME280;20339;49.754;20.158;2022-09-03T02:43:53;96891.33;;;10.16;81.56
34065;BME280;20339;49.754;20.158;2022-09-03T02:46:26;96889.73;;;10.19;81.69
34065;BME280;20339;49.754;20.158;2022-09-03T02:48:59;96886.23;;;10.20;81.68
34065;BME280;20339;49.754;20.158;2022-09-03T02:51:34;96886.50;;;10.18;81.53
34065;BME280;20339;49.754;20.158;2022-09-03T02:54:06;96888.04;;;10.11;81.58
34065;BME280;20339;49.754;20.158;2022-09-03T02:56:37;96887.51;;;10.10;81.81
34065;BME280;20339;49.754;20.158;2022-09-03T02:59:09;96886.19;;;10.16;82.16
34065;BME280;20339;49.754;20.158;2022-09-03T03:01:40;96884.70;;;10.25;82.32
34065;BME280;20339;49.754;20.158;2022-09-03T03:04:11;96885.44;;;10.32;82.25
34065;BME280;20339;49.754;20.158;2022-09-03T03:06:43;96887.42;;;10.39;82.20
34065;BME280;20339;49.754;20.158;2022-09-03T03:09:14;96889.27;;;10.46;82.34
34065;BME280;20339;49.754;20.158;2022-09-03T03:11:45;96888.16;;;10.53;82.34
34065;BME280;20339;49.754;20.158;2022-09-03T03:14:20;96884.14;;;10.57;82.24
34065;BME280;20339;49.754;20.158;2022-09-03T03:16:51;96887.80;;;10.58;82.28
34065;BME280;20339;49.754;20.158;2022-09-03T03:19:22;96887.16;;;10.54;82.26
34065;BME280;20339;49.754;20.158;2022-09-03T03:21:54;96889.86;;;10.54;82.60
34065;BME280;20339;49.754;20.158;2022-09-03T03:24:25;96889.77;;;10.58;82.88
34065;BME280;20339;49.754;20.158;2022-09-03T03:26:57;96886.98;;;10.60;82.82
34065;BME280;20339;49.754;20.158;2022-09-03T03:29:28;96882.25;;;10.62;82.90
34065;BME280;20339;49.754;20.158;2022-09-03T03:31:59;96888.30;;;10.63;82.70
34065;BME280;20339;49.754;20.158;2022-09-03T03:34:30;96887.98;;;10.64;82.44
34065;BME280;20339;49.754;20.158;2022-09-03T03:37:01;96887.66;;;10.64;81.90
34065;BME280;20339;49.754;20.158;2022-09-03T03:39:34;96885.95;;;10.65;81.64
34065;BME280;20339;49.754;20.158;2022-09-03T03:42:05;96883.90;;;10.63;81.56
34065;BME280;20339;49.754;20.158;2022-09-03T03:44:36;96880.83;;;10.62;81.58
34065;BME280;20339;49.754;20.158;2022-09-03T03:47:08;96877.04;;;10.57;81.83
34065;BME280;20339;49.754;20.158;2022-09-03T03:49:39;96876.13;;;10.54;81.58
34065;BME280;20339;49.754;20.158;2022-09-03T03:52:10;96876.39;;;10.52;81.49
34065;BME280;20339;49.754;20.158;2022-09-03T03:54:41;96882.38;;;10.54;81.56
34065;BME280;20339;49.754;20.158;2022-09-03T03:57:12;96880.00;;;10.55;81.52
34065;BME280;20339;49.754;20.158;2022-09-03T03:59:43;96879.46;;;10.55;81.51
34065;BME280;20339;49.754;20.158;2022-09-03T04:02:17;96879.26;;;10.55;81.50
34065;BME280;20339;49.754;20.158;2022-09-03T04:04:48;96875.39;;;10.54;81.38
34065;BME280;20339;49.754;20.158;2022-09-03T04:07:19;96877.63;;;10.52;81.37
34065;BME280;20339;49.754;20.158;2022-09-03T04:09:50;96875.25;;;10.49;81.61
34065;BME280;20339;49.754;20.158;2022-09-03T04:12:21;96871.83;;;10.46;81.82
34065;BME280;20339;49.754;20.158;2022-09-03T04:14:52;96870.42;;;10.51;82.04
34065;BME280;20339;49.754;20.158;2022-09-03T04:17:23;96869.02;;;10.57;81.90
34065;BME280;20339;49.754;20.158;2022-09-03T04:19:55;96867.19;;;10.63;81.66
34065;BME280;20339;49.754;20.158;2022-09-03T04:22:26;96869.17;;;10.67;81.47
34065;BME280;20339;49.754;20.158;2022-09-03T04:24:57;96868.07;;;10.72;81.48
34065;BME280;20339;49.754;20.158;2022-09-03T04:27:29;96873.23;;;10.76;81.22
34065;BME280;20339;49.754;20.158;2022-09-03T04:30:00;96875.55;;;10.79;81.18
34065;BME280;20339;49.754;20.158;2022-09-03T04:32:31;96877.02;;;10.83;81.04
34065;BME280;20339;49.754;20.158;2022-09-03T04:35:20;96883.11;;;10.88;80.91
34065;BME280;20339;49.754;20.158;2022-09-03T04:37:52;96886.40;;;10.88;80.69
34065;BME280;20339;49.754;20.158;2022-09-03T04:40:23;96891.69;;;10.90;80.81
34065;BME280;20339;49.754;20.158;2022-09-03T04:42:58;96893.22;;;10.91;80.70
34065;BME280;20339;49.754;20.158;2022-09-03T04:45:30;96897.05;;;10.95;80.74
34065;BME280;20339;49.754;20.158;2022-09-03T04:48:01;96898.70;;;10.95;80.54
34065;BME280;20339;49.754;20.158;2022-09-03T04:50:34;96896.00;;;10.97;80.58
34065;BME280;20339;49.754;20.158;2022-09-03T04:53:05;96897.21;;;10.98;80.56
34065;BME280;20339;49.754;20.158;2022-09-03T04:55:38;96895.96;;;10.93;80.42
34065;BME280;20339;49.754;20.158;2022-09-03T04:58:09;96892.65;;;10.88;80.46
34065;BME280;20339;49.754;20.158;2022-09-03T05:00:40;96895.32;;;10.81;80.71
34065;BME280;20339;49.754;20.158;2022-09-03T05:03:11;96892.91;;;10.77;80.82
34065;BME280;20339;49.754;20.158;2022-09-03T05:05:44;96896.38;;;10.83;81.16
34065;BME280;20339;49.754;20.158;2022-09-03T05:08:21;96900.73;;;10.92;81.47
34065;BME280;20339;49.754;20.158;2022-09-03T05:10:58;96903.35;;;11.02;81.44
34065;BME280;20339;49.754;20.158;2022-09-03T05:13:30;96908.88;;;11.09;81.23
34065;BME280;20339;49.754;20.158;2022-09-03T05:16:03;96911.48;;;11.13;81.02
34065;BME280;20339;49.754;20.158;2022-09-03T05:18:35;96913.84;;;11.17;81.14
34065;BME280;20339;49.754;20.158;2022-09-03T05:21:09;96921.95;;;11.23;80.86
34065;BME280;20339;49.754;20.158;2022-09-03T05:23:41;96921.25;;;11.28;80.95
34065;BME280;20339;49.754;20.158;2022-09-03T05:26:14;96923.17;;;11.33;80.76
34065;BME280;20339;49.754;20.158;2022-09-03T05:28:46;96923.73;;;11.37;80.62
34065;BME280;20339;49.754;20.158;2022-09-03T05:31:19;96925.91;;;11.42;80.61
34065;BME280;20339;49.754;20.158;2022-09-03T05:33:52;96924.12;;;11.45;80.51
34065;BME280;20339;49.754;20.158;2022-09-03T05:36:28;96923.86;;;11.44;80.41
34065;BME280;20339;49.754;20.158;2022-09-03T05:39:00;96921.98;;;11.39;80.33
34065;BME280;20339;49.754;20.158;2022-09-03T05:41:32;96921.89;;;11.35;80.44
34065;BME280;20339;49.754;20.158;2022-09-03T05:44:04;96920.09;;;11.35;80.56
34065;BME280;20339;49.754;20.158;2022-09-03T05:46:35;96919.39;;;11.29;80.42
34065;BME280;20339;49.754;20.158;2022-09-03T05:49:08;96916.43;;;11.23;80.63
34065;BME280;20339;49.754;20.158;2022-09-03T05:51:40;96916.19;;;11.15;80.82
34065;BME280;20339;49.754;20.158;2022-09-03T05:54:12;96915.30;;;11.12;81.13
34065;BME280;20339;49.754;20.158;2022-09-03T05:56:43;96916.56;;;11.13;81.37
34065;BME280;20339;49.754;20.158;2022-09-03T05:59:14;96915.60;;;11.10;81.58
34065;BME280;20339;49.754;20.158;2022-09-03T06:01:46;96911.26;;;11.12;81.71
34065;BME280;20339;49.754;20.158;2022-09-03T06:04:19;96912.11;;;11.12;81.52
34065;BME280;20339;49.754;20.158;2022-09-03T06:06:50;96912.43;;;11.13;81.59
34065;BME280;20339;49.754;20.158;2022-09-03T06:09:22;96911.41;;;11.13;81.64
34065;BME280;20339;49.754;20.158;2022-09-03T06:11:54;96912.05;;;11.13;81.73
34065;BME280;20339;49.754;20.158;2022-09-03T06:14:25;96911.23;;;11.18;81.81
34065;BME280;20339;49.754;20.158;2022-09-03T06:16:56;96912.48;;;11.21;81.98
34065;BME280;20339;49.754;20.158;2022-09-03T06:19:27;96916.81;;;11.23;82.03
34065;BME280;20339;49.754;20.158;2022-09-03T06:21:59;96923.48;;;11.25;82.15
34065;BME280;20339;49.754;20.158;2022-09-03T06:24:30;96928.85;;;11.26;82.15
34065;BME280;20339;49.754;20.158;2022-09-03T06:27:01;96931.02;;;11.29;82.25
34065;BME280;20339;49.754;20.158;2022-09-03T06:29:33;96933.96;;;11.33;82.21
34065;BME280;20339;49.754;20.158;2022-09-03T06:32:06;96930.98;;;11.34;82.00
34065;BME280;20339;49.754;20.158;2022-09-03T06:34:37;96930.50;;;11.34;82.06
34065;BME280;20339;49.754;20.158;2022-09-03T06:37:08;96931.29;;;11.35;82.30
34065;BME280;20339;49.754;20.158;2022-09-03T06:39:39;96934.07;;;11.43;82.39
34065;BME280;20339;49.754;20.158;2022-09-03T06:42:11;96932.06;;;11.42;82.29
34065;BME280;20339;49.754;20.158;2022-09-03T06:44:42;96931.20;;;11.40;82.48
34065;BME280;20339;49.754;20.158;2022-09-03T06:47:14;96928.19;;;11.42;82.79
34065;BME280;20339;49.754;20.158;2022-09-03T06:49:46;96932.66;;;11.51;83.08
34065;BME280;20339;49.754;20.158;2022-09-03T06:52:17;96931.86;;;11.54;82.97
34065;BME280;20339;49.754;20.158;2022-09-03T06:54:48;96938.69;;;11.59;83.05
34065;BME280;20339;49.754;20.158;2022-09-03T06:57:20;96944.69;;;11.65;83.03
34065;BME280;20339;49.754;20.158;2022-09-03T06:59:51;96944.08;;;11.70;83.24
34065;BME280;20339;49.754;20.158;2022-09-03T07:02:24;96946.94;;;11.72;82.94
34065;BME280;20339;49.754;20.158;2022-09-03T07:04:55;96953.96;;;11.70;82.93
34065;BME280;20339;49.754;20.158;2022-09-03T07:07:27;96952.32;;;11.67;83.20
34065;BME280;20339;49.754;20.158;2022-09-03T07:09:58;96960.75;;;11.62;82.93
34065;BME280;20339;49.754;20.158;2022-09-03T07:12:29;96958.23;;;11.60;83.08
34065;BME280;20339;49.754;20.158;2022-09-03T07:15:08;96963.85;;;11.66;83.46
34065;BME280;20339;49.754;20.158;2022-09-03T07:17:39;96965.47;;;11.72;83.37
34065;BME280;20339;49.754;20.158;2022-09-03T07:20:11;96968.50;;;11.84;83.39
34065;BME280;20339;49.754;20.158;2022-09-03T07:22:42;96968.77;;;11.97;83.47
34065;BME280;20339;49.754;20.158;2022-09-03T07:25:13;96971.70;;;12.07;83.18
34065;BME280;20339;49.754;20.158;2022-09-03T07:27:44;96974.70;;;12.19;82.96
34065;BME280;20339;49.754;20.158;2022-09-03T07:30:17;96971.38;;;12.29;82.88
34065;BME280;20339;49.754;20.158;2022-09-03T07:32:50;96974.40;;;12.30;82.19
34065;BME280;20339;49.754;20.158;2022-09-03T07:35:25;96965.30;;;12.18;82.09
34065;BME280;20339;49.754;20.158;2022-09-03T07:37:56;96967.11;;;12.13;82.18
34065;BME280;20339;49.754;20.158;2022-09-03T07:40:30;96968.65;;;12.10;82.35
34065;BME280;20339;49.754;20.158;2022-09-03T07:43:02;96970.47;;;12.17;82.46
34065;BME280;20339;49.754;20.158;2022-09-03T07:45:33;96971.95;;;12.25;82.72
34065;BME280;20339;49.754;20.158;2022-09-03T07:48:06;96971.60;;;12.38;82.97
34065;BME280;20339;49.754;20.158;2022-09-03T07:50:37;96968.58;;;12.54;83.00
34065;BME280;20339;49.754;20.158;2022-09-03T07:53:08;96969.37;;;12.64;82.46
34065;BME280;20339;49.754;20.158;2022-09-03T07:55:40;96973.14;;;12.71;82.62
34065;BME280;20339;49.754;20.158;2022-09-03T07:58:12;96976.27;;;12.86;82.45
34065;BME280;20339;49.754;20.158;2022-09-03T08:00:44;96978.68;;;12.85;81.95
34065;BME280;20339;49.754;20.158;2022-09-03T08:03:15;96973.34;;;12.86;82.22
34065;BME280;20339;49.754;20.158;2022-09-03T08:05:47;96978.20;;;12.93;82.02
34065;BME280;20339;49.754;20.158;2022-09-03T08:08:20;96975.67;;;12.98;81.92
34065;BME280;20339;49.754;20.158;2022-09-03T08:10:52;96979.08;;;13.01;81.92
34065;BME280;20339;49.754;20.158;2022-09-03T08:13:24;96979.73;;;13.07;81.49
34065;BME280;20339;49.754;20.158;2022-09-03T08:15:56;96986.48;;;13.15;81.74
34065;BME280;20339;49.754;20.158;2022-09-03T08:18:29;96980.09;;;13.21;81.52
34065;BME280;20339;49.754;20.158;2022-09-03T08:21:10;96980.54;;;13.18;81.79
34065;BME280;20339;49.754;20.158;2022-09-03T08:23:44;96979.41;;;13.44;82.56
34065;BME280;20339;49.754;20.158;2022-09-03T08:26:17;96982.17;;;13.64;81.65
34065;BME280;20339;49.754;20.158;2022-09-03T08:28:51;96984.10;;;13.79;81.29
34065;BME280;20339;49.754;20.158;2022-09-03T08:31:23;96987.55;;;13.90;80.72
34065;BME280;20339;49.754;20.158;2022-09-03T08:33:58;96982.01;;;14.07;80.98
34065;BME280;20339;49.754;20.158;2022-09-03T08:36:32;96988.06;;;14.22;80.72
34065;BME280;20339;49.754;20.158;2022-09-03T08:39:05;96990.29;;;14.20;79.31
34065;BME280;20339;49.754;20.158;2022-09-03T08:42:03;96997.78;;;14.01;78.95
34065;BME280;20339;49.754;20.158;2022-09-03T08:44:42;96983.46;;;13.92;79.18
34065;BME280;20339;49.754;20.158;2022-09-03T08:47:18;96975.33;;;13.91;79.34
34065;BME280;20339;49.754;20.158;2022-09-03T08:49:55;96972.93;;;14.28;80.39
34065;BME280;20339;49.754;20.158;2022-09-03T08:52:30;96971.16;;;15.12;80.81
34065;BME280;20339;49.754;20.158;2022-09-03T08:55:22;96968.51;;;15.89;78.40
34065;BME280;20339;49.754;20.158;2022-09-03T08:58:01;96963.68;;;15.97;76.55
34065;BME280;20339;49.754;20.158;2022-09-03T09:00:44;96965.34;;;15.65;76.45
34065;BME280;20339;49.754;20.158;2022-09-03T09:03:35;96962.89;;;15.61;76.09
34065;BME280;20339;49.754;20.158;2022-09-03T09:06:17;96959.98;;;15.57;76.44
34065;BME280;20339;49.754;20.158;2022-09-03T09:09:01;96963.59;;;16.89;78.33
34065;BME280;20339;49.754;20.158;2022-09-03T09:11:42;96966.98;;;17.97;76.65
34065;BME280;20339;49.754;20.158;2022-09-03T09:14:21;96966.02;;;18.40;74.28
34065;BME280;20339;49.754;20.158;2022-09-03T09:17:03;96970.09;;;18.37;72.46
34065;BME280;20339;49.754;20.158;2022-09-03T09:19:48;96970.64;;;18.47;72.21
34065;BME280;20339;49.754;20.158;2022-09-03T09:22:25;96974.98;;;18.71;71.91
34065;BME280;20339;49.754;20.158;2022-09-03T09:25:03;96981.44;;;18.80;69.72
34065;BME280;20339;49.754;20.158;2022-09-03T09:27:55;96984.73;;;18.10;67.93
34065;BME280;20339;49.754;20.158;2022-09-03T09:30:30;96985.33;;;18.06;68.92
34065;BME280;20339;49.754;20.158;2022-09-03T09:33:02;96984.57;;;18.06;68.46
34065;BME280;20339;49.754;20.158;2022-09-03T09:35:35;96983.26;;;18.00;67.92
34065;BME280;20339;49.754;20.158;2022-09-03T09:38:10;96977.73;;;17.63;66.82
34065;BME280;20339;49.754;20.158;2022-09-03T09:40:43;96978.65;;;17.54;67.32
34065;BME280;20339;49.754;20.158;2022-09-03T09:43:21;96981.71;;;17.70;68.60
34065;BME280;20339;49.754;20.158;2022-09-03T09:45:54;96983.90;;;18.10;69.16
34065;BME280;20339;49.754;20.158;2022-09-03T09:48:42;96984.16;;;18.27;68.04
34065;BME280;20339;49.754;20.158;2022-09-03T09:51:21;96985.38;;;18.16;66.86
34065;BME280;20339;49.754;20.158;2022-09-03T09:54:03;96982.34;;;17.80;66.68
34065;BME280;20339;49.754;20.158;2022-09-03T09:56:34;96981.52;;;17.98;68.42
34065;BME280;20339;49.754;20.158;2022-09-03T09:59:07;96976.89;;;18.36;68.69
34065;BME280;20339;49.754;20.158;2022-09-03T10:01:40;96977.45;;;18.57;67.27
34065;BME280;20339;49.754;20.158;2022-09-03T10:04:22;96979.45;;;18.30;66.01
34065;BME280;20339;49.754;20.158;2022-09-03T10:06:58;96976.01;;;18.19;66.59
34065;BME280;20339;49.754;20.158;2022-09-03T10:09:33;96972.67;;;18.07;66.21
34065;BME280;20339;49.754;20.158;2022-09-03T10:12:11;96973.71;;;17.98;66.31
34065;BME280;20339;49.754;20.158;2022-09-03T10:14:52;96972.96;;;18.02;66.79
34065;BME280;20339;49.754;20.158;2022-09-03T10:17:30;96971.91;;;18.11;66.95
34065;BME280;20339;49.754;20.158;2022-09-03T10:20:10;96962.76;;;18.02;66.06
34065;BME280;20339;49.754;20.158;2022-09-03T10:23:02;96961.67;;;17.72;65.39
34065;BME280;20339;49.754;20.158;2022-09-03T10:25:39;96960.81;;;17.20;64.79
34065;BME280;20339;49.754;20.158;2022-09-03T10:28:23;96958.78;;;16.85;66.05
34065;BME280;20339;49.754;20.158;2022-09-03T10:31:12;96955.08;;;16.80;66.49
34065;BME280;20339;49.754;20.158;2022-09-03T10:33:53;96964.94;;;16.69;65.95
34065;BME280;20339;49.754;20.158;2022-09-03T10:36:29;96967.11;;;16.57;66.05
34065;BME280;20339;49.754;20.158;2022-09-03T10:39:08;96968.64;;;16.48;65.90
34065;BME280;20339;49.754;20.158;2022-09-03T10:41:53;96978.39;;;16.35;65.75
34065;BME280;20339;49.754;20.158;2022-09-03T10:44:47;96982.95;;;16.36;66.39
34065;BME280;20339;49.754;20.158;2022-09-03T10:47:33;96983.89;;;16.48;66.47
34065;BME280;20339;49.754;20.158;2022-09-03T10:50:13;96979.83;;;16.50;66.30
34065;BME280;20339;49.754;20.158;2022-09-03T10:52:58;96984.36;;;16.38;66.33
34065;BME280;20339;49.754;20.158;2022-09-03T10:55:44;96978.39;;;16.53;67.48
34065;BME280;20339;49.754;20.158;2022-09-03T10:58:36;96982.81;;;16.52;66.38
34065;BME280;20339;49.754;20.158;2022-09-03T11:01:25;96979.08;;;16.46;66.98
34065;BME280;20339;49.754;20.158;2022-09-03T11:04:21;96978.70;;;16.69;66.62
34065;BME280;20339;49.754;20.158;2022-09-03T11:06:59;96977.23;;;16.82;65.90
34065;BME280;20339;49.754;20.158;2022-09-03T11:09:34;96969.30;;;16.75;65.34
34065;BME280;20339;49.754;20.158;2022-09-03T11:12:11;96964.23;;;16.84;65.96
34065;BME280;20339;49.754;20.158;2022-09-03T11:14:50;96972.69;;;16.80;65.06
34065;BME280;20339;49.754;20.158;2022-09-03T11:17:26;96972.16;;;16.63;65.31
34065;BME280;20339;49.754;20.158;2022-09-03T11:20:06;96970.17;;;16.48;64.71
34065;BME280;20339;49.754;20.158;2022-09-03T11:22:41;96973.07;;;16.52;65.06
34065;BME280;20339;49.754;20.158;2022-09-03T11:25:17;96975.44;;;16.56;64.20
34065;BME280;20339;49.754;20.158;2022-09-03T11:28:04;96968.48;;;16.54;64.18
34065;BME280;20339;49.754;20.158;2022-09-03T11:30:54;96967.72;;;16.63;64.89
34065;BME280;20339;49.754;20.158;2022-09-03T11:33:34;96963.50;;;16.85;64.43
34065;BME280;20339;49.754;20.158;2022-09-03T11:36:11;96959.48;;;16.92;63.42
34065;BME280;20339;49.754;20.158;2022-09-03T11:38:43;96959.30;;;16.93;63.13
34065;BME280;20339;49.754;20.158;2022-09-03T11:41:22;96957.52;;;16.88;62.20
34065;BME280;20339;49.754;20.158;2022-09-03T11:43:55;96949.02;;;17.04;63.72
34065;BME280;20339;49.754;20.158;2022-09-03T11:46:30;96947.77;;;17.46;63.17
34065;BME280;20339;49.754;20.158;2022-09-03T11:49:12;96951.81;;;17.71;62.49
34065;BME280;20339;49.754;20.158;2022-09-03T11:52:00;96953.13;;;17.77;60.61
34065;BME280;20339;49.754;20.158;2022-09-03T11:54:43;96953.11;;;17.92;61.10
34065;BME280;20339;49.754;20.158;2022-09-03T11:57:21;96952.92;;;17.89;60.43
34065;BME280;20339;49.754;20.158;2022-09-03T11:59:53;96949.55;;;17.84;61.20
34065;BME280;20339;49.754;20.158;2022-09-03T12:02:28;96949.65;;;17.80;61.55
34065;BME280;20339;49.754;20.158;2022-09-03T12:10:52;96938.67;;;17.51;61.90
34065;BME280;20339;49.754;20.158;2022-09-03T12:13:41;96937.96;;;17.43;61.62
34065;BME280;20339;49.754;20.158;2022-09-03T12:16:34;96933.39;;;17.35;61.87
34065;BME280;20339;49.754;20.158;2022-09-03T12:19:14;96939.77;;;17.45;60.24
34065;BME280;20339;49.754;20.158;2022-09-03T12:21:51;96940.98;;;17.35;61.31
34065;BME280;20339;49.754;20.158;2022-09-03T12:24:26;96944.10;;;17.33;61.40
34065;BME280;20339;49.754;20.158;2022-09-03T12:27:03;96946.48;;;17.11;60.94
34065;BME280;20339;49.754;20.158;2022-09-03T12:29:34;96945.76;;;16.80;61.11
34065;BME280;20339;49.754;20.158;2022-09-03T12:32:10;96950.34;;;16.60;61.95
34065;BME280;20339;49.754;20.158;2022-09-03T12:34:43;96944.54;;;16.42;62.16
34065;BME280;20339;49.754;20.158;2022-09-03T12:37:21;96941.77;;;16.33;62.83
34065;BME280;20339;49.754;20.158;2022-09-03T12:39:55;96940.73;;;16.31;62.85
34065;BME280;20339;49.754;20.158;2022-09-03T12:42:31;96938.39;;;16.27;63.20
34065;BME280;20339;49.754;20.158;2022-09-03T12:45:08;96937.54;;;16.36;63.52
34065;BME280;20339;49.754;20.158;2022-09-03T12:47:42;96931.11;;;16.38;63.36
34065;BME280;20339;49.754;20.158;2022-09-03T12:50:18;96925.18;;;16.43;63.50
34065;BME280;20339;49.754;20.158;2022-09-03T12:52:52;96924.27;;;16.52;63.39
34065;BME280;20339;49.754;20.158;2022-09-03T12:55:37;96927.86;;;16.55;63.46
34065;BME280;20339;49.754;20.158;2022-09-03T12:58:14;96927.03;;;16.52;62.82
34065;BME280;20339;49.754;20.158;2022-09-03T13:00:53;96926.88;;;16.48;62.79
34065;BME280;20339;49.754;20.158;2022-09-03T13:03:30;96928.15;;;16.44;62.63
34065;BME280;20339;49.754;20.158;2022-09-03T13:06:10;96925.24;;;16.39;62.84
34065;BME280;20339;49.754;20.158;2022-09-03T13:08:46;96922.98;;;16.46;63.04
34065;BME280;20339;49.754;20.158;2022-09-03T13:11:22;96917.04;;;16.50;63.21
34065;BME280;20339;49.754;20.158;2022-09-03T13:14:01;96916.60;;;16.64;63.20
34065;BME280;20339;49.754;20.158;2022-09-03T13:19:57;96915.38;;;16.66;62.45
34065;BME280;20339;49.754;20.158;2022-09-03T13:22:38;96918.52;;;16.69;62.24
34065;BME280;20339;49.754;20.158;2022-09-03T13:25:24;96925.13;;;16.68;61.68
34065;BME280;20339;49.754;20.158;2022-09-03T13:28:02;96923.33;;;16.69;62.48
34065;BME280;20339;49.754;20.158;2022-09-03T13:30:48;96920.48;;;16.88;62.88
34065;BME280;20339;49.754;20.158;2022-09-03T13:33:27;96925.91;;;16.87;61.90
34065;BME280;20339;49.754;20.158;2022-09-03T13:36:12;96927.56;;;16.75;61.81
34065;BME280;20339;49.754;20.158;2022-09-03T13:38:48;96922.48;;;16.61;61.95
34065;BME280;20339;49.754;20.158;2022-09-03T13:41:32;96917.01;;;16.49;62.72
34065;BME280;20339;49.754;20.158;2022-09-03T13:44:09;96922.34;;;16.39;62.89
34065;BME280;20339;49.754;20.158;2022-09-03T13:46:47;96919.15;;;16.32;63.55
34065;BME280;20339;49.754;20.158;2022-09-03T13:49:33;96927.77;;;16.36;63.55